createdAt,value
2019-01-03T00:00:58.167Z,0
2019-01-03T00:02:06.223Z,0
2019-01-03T00:03:14.265Z,0
2019-01-03T00:04:22.323Z,0
2019-01-03T00:05:30.365Z,0
2019-01-03T00:06:38.447Z,0
2019-01-03T00:07:46.479Z,0
2019-01-03T00:08:54.541Z,0
2019-01-03T00:10:02.595Z,0
2019-01-03T00:11:10.622Z,0
2019-01-03T00:12:18.701Z,0
2019-01-03T00:13:26.740Z,0
2019-01-03T00:14:34.844Z,0
2019-01-03T00:15:42.854Z,0
2019-01-03T00:16:50.892Z,0
2019-01-03T00:17:58.967Z,0
2019-01-03T00:19:07.003Z,0
2019-01-03T00:20:15.066Z,0
2019-01-03T00:21:23.132Z,0
2019-01-03T00:22:31.185Z,0
2019-01-03T00:23:39.234Z,0
2019-01-03T00:24:47.279Z,0
2019-01-03T00:25:55.332Z,0
2019-01-03T00:27:03.385Z,0
2019-01-03T00:28:11.423Z,0
2019-01-03T00:29:19.496Z,0
2019-01-03T00:30:27.587Z,0
2019-01-03T00:31:35.593Z,0
2019-01-03T00:32:43.652Z,0
2019-01-03T00:33:51.707Z,0
2019-01-03T00:34:59.765Z,0
2019-01-03T00:36:07.803Z,0
2019-01-03T00:37:15.861Z,0
2019-01-03T00:38:23.952Z,0
2019-01-03T00:39:31.980Z,0
2019-01-03T00:40:40.025Z,0
2019-01-03T00:41:48.079Z,0
2019-01-03T00:42:56.153Z,0
2019-01-03T00:44:04.183Z,0
2019-01-03T00:45:12.249Z,0
2019-01-03T00:46:20.336Z,0
2019-01-03T00:47:28.343Z,0
2019-01-03T00:48:36.400Z,0
2019-01-03T00:49:44.447Z,0
2019-01-03T00:50:52.493Z,0
2019-01-03T00:52:00.542Z,0
2019-01-03T00:53:08.606Z,0
2019-01-03T00:54:16.662Z,0
2019-01-03T00:55:24.759Z,0
2019-01-03T00:56:32.768Z,0
2019-01-03T00:57:40.793Z,0
2019-01-03T00:58:48.863Z,0
2019-01-03T00:59:56.915Z,0
2019-01-03T01:01:04.989Z,0
2019-01-03T01:02:13.039Z,0
2019-01-03T01:03:21.097Z,0
2019-01-03T01:04:29.138Z,0
2019-01-03T01:05:37.199Z,0
2019-01-03T01:06:45.235Z,0
2019-01-03T01:07:53.293Z,0
2019-01-03T01:09:01.321Z,0
2019-01-03T01:10:09.395Z,0
2019-01-03T01:11:17.482Z,0
2019-01-03T01:12:25.500Z,0
2019-01-03T01:13:33.552Z,0
2019-01-03T01:14:41.613Z,0
2019-01-03T01:15:49.649Z,0
2019-01-03T01:16:57.703Z,0
2019-01-03T01:18:05.759Z,0
2019-01-03T01:19:13.861Z,0
2019-01-03T01:20:21.873Z,0
2019-01-03T01:21:29.928Z,0
2019-01-03T01:22:37.975Z,0
2019-01-03T01:23:46.032Z,0
2019-01-03T01:26:33.502Z,0
2019-01-03T01:27:41.560Z,0
2019-01-03T01:28:49.610Z,0
2019-01-03T01:29:57.660Z,0
2019-01-03T01:31:05.703Z,0
2019-01-03T01:32:13.747Z,0
2019-01-03T01:33:21.802Z,0
2019-01-03T01:34:29.864Z,0
2019-01-03T01:35:37.920Z,0
2019-01-03T01:36:45.977Z,0
2019-01-03T01:37:54.023Z,0
2019-01-03T01:39:02.076Z,0
2019-01-03T01:40:10.128Z,0
2019-01-03T01:41:18.179Z,0
2019-01-03T01:42:26.219Z,0
2019-01-03T01:43:34.286Z,0
2019-01-03T01:44:42.349Z,0
2019-01-03T01:45:50.385Z,0
2019-01-03T01:46:58.443Z,0
2019-01-03T01:48:06.495Z,0
2019-01-03T01:49:14.543Z,0
2019-01-03T01:50:22.597Z,0
2019-01-03T01:51:30.625Z,0
2019-01-03T01:52:38.705Z,0
2019-01-03T01:53:46.766Z,0
2019-01-03T01:54:54.812Z,0
2019-01-03T01:56:02.849Z,0
2019-01-03T01:57:10.874Z,0
2019-01-03T01:58:18.978Z,0
2019-01-03T01:59:27.016Z,0
2019-01-03T02:00:35.069Z,0
2019-01-03T02:01:43.140Z,0
2019-01-03T02:02:51.151Z,0
2019-01-03T02:03:59.216Z,0
2019-01-03T02:05:07.269Z,0
2019-01-03T02:06:15.338Z,0
2019-01-03T02:07:23.406Z,0
2019-01-03T02:08:31.413Z,0
2019-01-03T02:09:39.487Z,0
2019-01-03T02:10:47.540Z,0
2019-01-03T02:11:55.597Z,0
2019-01-03T02:13:03.650Z,0
2019-01-03T02:14:11.695Z,0
2019-01-03T02:15:19.747Z,0
2019-01-03T02:16:27.819Z,0
2019-01-03T02:17:35.861Z,0
2019-01-03T02:18:43.900Z,0
2019-01-03T02:19:51.956Z,0
2019-01-03T02:21:00.014Z,0
2019-01-03T02:22:08.064Z,0
2019-01-03T02:23:16.116Z,0
2019-01-03T02:24:24.160Z,0
2019-01-03T02:25:32.225Z,0
2019-01-03T02:26:40.307Z,0
2019-01-03T02:27:48.320Z,0
2019-01-03T02:28:56.385Z,0
2019-01-03T02:30:04.439Z,0
2019-01-03T02:31:12.491Z,0
2019-01-03T02:32:20.524Z,0
2019-01-03T02:33:28.596Z,0
2019-01-03T02:34:36.699Z,0
2019-01-03T02:35:44.702Z,0
2019-01-03T02:36:52.755Z,0
2019-01-03T02:38:00.779Z,0
2019-01-03T02:39:08.870Z,0
2019-01-03T02:40:16.905Z,0
2019-01-03T02:41:24.961Z,0
2019-01-03T02:42:33.019Z,0
2019-01-03T02:43:41.035Z,0
2019-01-03T02:44:49.114Z,0
2019-01-03T02:45:57.165Z,0
2019-01-03T02:47:05.224Z,0
2019-01-03T02:48:13.287Z,0
2019-01-03T02:49:21.291Z,0
2019-01-03T02:50:29.379Z,0
2019-01-03T02:51:37.417Z,0
2019-01-03T02:52:45.483Z,0
2019-01-03T02:53:53.538Z,0
2019-01-03T02:55:01.574Z,0
2019-01-03T02:56:09.645Z,0
2019-01-03T02:57:17.692Z,0
2019-01-03T02:58:25.740Z,0
2019-01-03T02:59:33.790Z,0
2019-01-03T03:00:41.846Z,0
2019-01-03T03:01:49.907Z,0
2019-01-03T03:02:57.962Z,0
2019-01-03T03:04:06.002Z,0
2019-01-03T03:05:14.053Z,0
2019-01-03T03:06:22.113Z,0
2019-01-03T03:07:30.157Z,0
2019-01-03T03:08:38.218Z,0
2019-01-03T03:09:46.259Z,0
2019-01-03T03:10:54.329Z,0
2019-01-03T03:12:02.366Z,0
2019-01-03T03:13:10.412Z,0
2019-01-03T03:14:18.478Z,0
2019-01-03T03:15:26.513Z,0
2019-01-03T03:16:34.569Z,0
2019-01-03T03:17:42.630Z,0
2019-01-03T03:18:50.658Z,0
2019-01-03T03:19:58.743Z,0
2019-01-03T03:21:06.790Z,0
2019-01-03T03:22:14.849Z,0
2019-01-03T03:23:22.882Z,0
2019-01-03T03:24:30.919Z,0
2019-01-03T03:25:39.008Z,0
2019-01-03T03:26:47.042Z,0
2019-01-03T03:27:55.103Z,0
2019-01-03T03:29:03.159Z,0
2019-01-03T03:30:11.183Z,0
2019-01-03T03:31:19.253Z,0
2019-01-03T03:32:27.311Z,0
2019-01-03T03:33:35.363Z,0
2019-01-03T03:34:43.456Z,0
2019-01-03T03:35:51.445Z,0
2019-01-03T03:36:59.524Z,0
2019-01-03T03:38:07.581Z,0
2019-01-03T03:39:15.611Z,0
2019-01-03T03:40:23.658Z,0
2019-01-03T03:41:31.730Z,0
2019-01-03T03:42:39.833Z,0
2019-01-03T03:43:47.833Z,0
2019-01-03T03:44:55.888Z,0
2019-01-03T03:46:03.926Z,0
2019-01-03T03:47:11.990Z,0
2019-01-03T03:48:20.043Z,0
2019-01-03T03:49:28.084Z,0
2019-01-03T03:50:36.197Z,0
2019-01-03T03:51:44.202Z,0
2019-01-03T03:52:52.247Z,0
2019-01-03T03:54:00.292Z,0
2019-01-03T03:55:08.356Z,0
2019-01-03T03:56:16.410Z,0
2019-01-03T03:57:24.448Z,0
2019-01-03T03:58:32.541Z,0
2019-01-03T03:59:40.543Z,0
2019-01-03T04:00:48.627Z,0
2019-01-03T04:01:56.667Z,0
2019-01-03T04:03:04.708Z,0
2019-01-03T04:04:12.772Z,0
2019-01-03T04:05:20.799Z,0
2019-01-03T04:06:28.872Z,0
2019-01-03T04:07:36.921Z,0
2019-01-03T04:08:44.971Z,0
2019-01-03T04:09:53.029Z,0
2019-01-03T04:11:01.053Z,0
2019-01-03T04:12:09.132Z,0
2019-01-03T04:13:17.183Z,0
2019-01-03T04:14:25.254Z,0
2019-01-03T04:15:33.289Z,0
2019-01-03T04:16:41.320Z,0
2019-01-03T04:17:49.390Z,0
2019-01-03T04:18:57.449Z,0
2019-01-03T04:20:05.496Z,0
2019-01-03T04:21:13.558Z,0
2019-01-03T04:22:21.597Z,0
2019-01-03T04:23:29.661Z,0
2019-01-03T04:24:37.697Z,0
2019-01-03T04:25:45.757Z,0
2019-01-03T04:26:53.805Z,0
2019-01-03T04:28:01.867Z,0
2019-01-03T04:29:09.907Z,0
2019-01-03T04:30:17.971Z,0
2019-01-03T04:31:26.025Z,0
2019-01-03T04:32:34.076Z,0
2019-01-03T04:33:42.112Z,0
2019-01-03T04:34:50.172Z,0
2019-01-03T04:35:58.221Z,0
2019-01-03T04:37:06.293Z,0
2019-01-03T04:38:14.329Z,0
2019-01-03T04:39:22.383Z,0
2019-01-03T04:40:30.435Z,0
2019-01-03T04:41:38.499Z,0
2019-01-03T04:42:46.535Z,0
2019-01-03T04:43:54.582Z,0
2019-01-03T04:45:02.659Z,0
2019-01-03T04:46:10.679Z,0
2019-01-03T04:47:18.744Z,0
2019-01-03T04:48:26.793Z,0
2019-01-03T04:49:34.835Z,0
2019-01-03T04:50:42.924Z,0
2019-01-03T04:51:50.930Z,0
2019-01-03T04:52:59.000Z,0
2019-01-03T04:54:07.046Z,0
2019-01-03T04:55:15.112Z,0
2019-01-03T04:56:23.160Z,0
2019-01-03T04:57:31.177Z,0
2019-01-03T04:58:39.257Z,0
2019-01-03T04:59:47.324Z,0
2019-01-03T05:00:55.359Z,0
2019-01-03T05:02:03.422Z,0
2019-01-03T05:03:11.451Z,0
2019-01-03T05:04:19.520Z,0
2019-01-03T05:05:27.572Z,0
2019-01-03T05:06:35.622Z,0
2019-01-03T05:07:43.674Z,0
2019-01-03T05:08:51.731Z,0
2019-01-03T05:09:59.776Z,0
2019-01-03T05:11:07.827Z,0
2019-01-03T05:12:15.881Z,0
2019-01-03T05:13:23.953Z,0
2019-01-03T05:14:31.990Z,0
2019-01-03T05:15:40.031Z,0
2019-01-03T05:16:48.086Z,0
2019-01-03T05:17:56.157Z,0
2019-01-03T05:19:04.198Z,0
2019-01-03T05:20:12.255Z,0
2019-01-03T05:21:20.293Z,0
2019-01-03T05:22:28.455Z,0
2019-01-03T05:23:36.403Z,0
2019-01-03T05:24:44.451Z,0
2019-01-03T05:25:52.502Z,0
2019-01-03T05:27:00.582Z,0
2019-01-03T05:28:08.608Z,0
2019-01-03T05:29:16.651Z,0
2019-01-03T05:30:24.713Z,0
2019-01-03T05:31:32.833Z,0
2019-01-03T05:32:40.795Z,0
2019-01-03T05:33:48.881Z,0
2019-01-03T05:34:56.931Z,0
2019-01-03T05:36:04.969Z,0
2019-01-03T05:37:13.021Z,0
2019-01-03T05:38:21.452Z,0
2019-01-03T05:39:29.157Z,0
2019-01-03T05:40:37.177Z,0
2019-01-03T05:41:45.227Z,0
2019-01-03T05:42:53.282Z,0
2019-01-03T05:44:01.302Z,0
2019-01-03T05:45:09.385Z,0
2019-01-03T05:46:17.441Z,0
2019-01-03T05:47:25.490Z,0
2019-01-03T05:48:33.537Z,0
2019-01-03T05:49:41.841Z,0
2019-01-03T05:50:49.743Z,0
2019-01-03T05:51:57.689Z,0
2019-01-03T05:53:05.925Z,0
2019-01-03T05:54:14.473Z,0
2019-01-03T05:55:22.369Z,0
2019-01-03T05:56:29.895Z,0
2019-01-03T05:57:37.939Z,0
2019-01-03T05:58:46.035Z,0
2019-01-03T05:59:54.047Z,0
2019-01-03T06:01:02.099Z,0
2019-01-03T06:02:10.159Z,0
2019-01-03T06:03:18.212Z,0
2019-01-03T06:04:26.259Z,0
2019-01-03T06:05:34.306Z,0
2019-01-03T06:06:42.372Z,0
2019-01-03T06:07:50.411Z,0
2019-01-03T06:08:58.461Z,0
2019-01-03T06:10:06.519Z,0
2019-01-03T06:11:14.562Z,0
2019-01-03T06:12:22.616Z,0
2019-01-03T06:13:30.639Z,0
2019-01-03T06:14:38.725Z,0
2019-01-03T06:15:46.758Z,0
2019-01-03T06:16:54.822Z,0
2019-01-03T06:18:02.871Z,0
2019-01-03T06:19:11.545Z,0
2019-01-03T06:20:18.968Z,0
2019-01-03T06:21:27.047Z,0
2019-01-03T06:22:35.072Z,0
2019-01-03T06:23:43.135Z,0
2019-01-03T06:24:51.163Z,0
2019-01-03T06:25:59.236Z,0
2019-01-03T06:27:07.281Z,0
2019-01-03T06:28:15.382Z,0
2019-01-03T06:29:23.392Z,0
2019-01-03T06:30:31.430Z,0
2019-01-03T06:31:39.486Z,0
2019-01-03T06:32:47.543Z,0
2019-01-03T06:33:55.586Z,0
2019-01-03T06:35:03.638Z,0
2019-01-03T06:36:11.681Z,0
2019-01-03T06:37:19.752Z,0
2019-01-03T06:38:27.796Z,0
2019-01-03T06:39:35.856Z,0
2019-01-03T06:40:43.896Z,0
2019-01-03T06:41:51.952Z,0
2019-01-03T06:42:59.996Z,0
2019-01-03T06:44:08.062Z,0
2019-01-03T06:45:16.088Z,0
2019-01-03T06:46:24.156Z,0
2019-01-03T06:47:32.213Z,0
2019-01-03T06:48:40.264Z,0
2019-01-03T06:49:48.311Z,0
2019-01-03T06:50:56.373Z,0
2019-01-03T06:52:04.403Z,0
2019-01-03T06:53:12.464Z,0
2019-01-03T06:54:20.507Z,0
2019-01-03T06:55:28.564Z,0
2019-01-03T06:56:36.615Z,0
2019-01-03T06:57:44.670Z,0
2019-01-03T06:58:52.760Z,0
2019-01-03T07:00:00.781Z,0
2019-01-03T07:01:08.824Z,0
2019-01-03T07:02:16.873Z,0
2019-01-03T07:03:24.937Z,0
2019-01-03T07:04:32.987Z,0
2019-01-03T07:05:41.001Z,0
2019-01-03T07:06:49.098Z,0
2019-01-03T07:07:57.131Z,5
2019-01-03T07:09:05.199Z,5
2019-01-03T07:10:13.240Z,5
2019-01-03T07:11:22.119Z,5
2019-01-03T07:12:29.340Z,5
2019-01-03T07:13:37.395Z,5
2019-01-03T07:14:45.444Z,5
2019-01-03T07:15:53.525Z,10
2019-01-03T07:17:01.557Z,10
2019-01-03T07:18:09.587Z,10
2019-01-03T07:19:17.642Z,10
2019-01-03T07:20:25.716Z,10
2019-01-03T07:21:33.761Z,10
2019-01-03T07:22:41.805Z,15
2019-01-03T07:23:49.855Z,15
2019-01-03T07:24:57.914Z,15
2019-01-03T07:26:05.968Z,20
2019-01-03T07:27:14.009Z,20
2019-01-03T07:28:22.067Z,20
2019-01-03T07:29:30.118Z,20
2019-01-03T07:30:38.169Z,25
2019-01-03T07:31:46.221Z,25
2019-01-03T07:32:54.265Z,25
2019-01-03T07:34:02.332Z,30
2019-01-03T07:35:10.366Z,30
2019-01-03T07:36:18.432Z,30
2019-01-03T07:37:26.471Z,30
2019-01-03T07:38:34.537Z,30
2019-01-03T07:39:42.594Z,35
2019-01-03T07:40:50.616Z,35
2019-01-03T07:41:58.686Z,35
2019-01-03T07:43:06.742Z,35
2019-01-03T07:44:14.786Z,40
2019-01-03T07:45:22.894Z,40
2019-01-03T07:46:30.859Z,40
2019-01-03T07:47:38.937Z,45
2019-01-03T07:48:46.997Z,45
2019-01-03T07:49:55.045Z,45
2019-01-03T07:51:03.099Z,45
2019-01-03T07:52:11.319Z,45
2019-01-03T07:53:19.203Z,45
2019-01-03T07:54:27.247Z,45
2019-01-03T07:55:35.343Z,50
2019-01-03T07:56:43.371Z,50
2019-01-03T07:57:51.380Z,50
2019-01-03T07:58:59.463Z,55
2019-01-03T08:00:07.513Z,55
2019-01-03T08:01:15.580Z,55
2019-01-03T08:02:23.617Z,55
2019-01-03T08:03:31.667Z,55
2019-01-03T08:04:39.714Z,55
2019-01-03T08:05:47.780Z,60
2019-01-03T08:06:55.825Z,60
2019-01-03T08:08:03.887Z,60
2019-01-03T08:09:11.942Z,65
2019-01-03T08:10:19.988Z,65
2019-01-03T08:11:28.049Z,70
2019-01-03T08:12:36.090Z,80
2019-01-03T08:13:44.618Z,85
2019-01-03T08:14:52.203Z,90
2019-01-03T08:16:00.237Z,90
2019-01-03T08:17:08.291Z,90
2019-01-03T08:18:16.350Z,90
2019-01-03T08:19:24.414Z,95
2019-01-03T08:20:32.450Z,95
2019-01-03T08:21:40.489Z,95
2019-01-03T08:22:48.562Z,90
2019-01-03T08:23:56.617Z,85
2019-01-03T08:25:04.662Z,80
2019-01-03T08:26:12.707Z,85
2019-01-03T08:27:20.733Z,85
2019-01-03T08:28:28.830Z,90
2019-01-03T08:29:36.874Z,95
2019-01-03T08:30:44.926Z,95
2019-01-03T08:31:52.986Z,100
2019-01-03T08:33:01.023Z,100
2019-01-03T08:34:09.089Z,105
2019-01-03T08:35:17.347Z,105
2019-01-03T08:36:25.191Z,110
2019-01-03T08:37:33.250Z,110
2019-01-03T08:38:41.276Z,115
2019-01-03T08:39:49.360Z,115
2019-01-03T08:40:57.402Z,115
2019-01-03T08:42:05.501Z,115
2019-01-03T08:43:13.511Z,115
2019-01-03T08:44:21.563Z,115
2019-01-03T08:45:29.624Z,120
2019-01-03T08:46:37.681Z,125
2019-01-03T08:47:45.728Z,125
2019-01-03T08:48:53.771Z,125
2019-01-03T08:50:01.827Z,130
2019-01-03T08:51:09.891Z,130
2019-01-03T08:52:17.934Z,130
2019-01-03T08:53:26.001Z,130
2019-01-03T08:54:34.051Z,135
2019-01-03T08:55:42.104Z,135
2019-01-03T08:56:50.162Z,130
2019-01-03T08:57:58.230Z,130
2019-01-03T08:59:06.278Z,130
2019-01-03T09:00:14.344Z,130
2019-01-03T09:01:22.385Z,130
2019-01-03T09:02:30.431Z,130
2019-01-03T09:03:38.495Z,140
2019-01-03T09:04:46.539Z,135
2019-01-03T09:05:54.598Z,135
2019-01-03T09:07:02.644Z,135
2019-01-03T09:08:10.694Z,140
2019-01-03T09:09:18.778Z,145
2019-01-03T09:10:26.807Z,145
2019-01-03T09:11:34.860Z,150
2019-01-03T09:12:42.916Z,150
2019-01-03T09:13:50.958Z,155
2019-01-03T09:14:59.030Z,155
2019-01-03T09:16:07.109Z,150
2019-01-03T09:17:15.149Z,150
2019-01-03T09:18:23.204Z,145
2019-01-03T09:19:31.220Z,145
2019-01-03T09:20:39.306Z,140
2019-01-03T09:21:47.355Z,135
2019-01-03T09:24:47.874Z,145
2019-01-03T09:24:48.019Z,140
2019-01-03T09:25:11.511Z,150
2019-01-03T09:26:19.579Z,150
2019-01-03T09:27:27.676Z,150
2019-01-03T09:28:35.690Z,150
2019-01-03T09:29:43.732Z,155
2019-01-03T09:30:51.784Z,155
2019-01-03T09:31:59.854Z,150
2019-01-03T09:33:07.911Z,150
2019-01-03T09:34:15.983Z,145
2019-01-03T09:35:24.019Z,140
2019-01-03T09:36:32.073Z,145
2019-01-03T09:37:40.138Z,150
2019-01-03T09:38:48.201Z,150
2019-01-03T09:39:56.236Z,150
2019-01-03T09:41:04.315Z,150
2019-01-03T09:42:12.351Z,145
2019-01-03T09:43:20.414Z,140
2019-01-03T09:44:28.464Z,135
2019-01-03T09:45:43.876Z,140
2019-01-03T09:46:44.571Z,135
2019-01-03T09:47:52.622Z,130
2019-01-03T09:49:00.664Z,125
2019-01-03T09:50:08.765Z,125
2019-01-03T09:51:16.810Z,120
2019-01-03T09:52:24.847Z,120
2019-01-03T09:53:32.923Z,125
2019-01-03T09:54:40.948Z,130
2019-01-03T09:55:49.025Z,130
2019-01-03T09:56:57.071Z,135
2019-01-03T09:58:05.134Z,140
2019-01-03T09:59:13.196Z,150
2019-01-03T10:00:21.230Z,160
2019-01-03T10:01:29.294Z,180
2019-01-03T10:02:37.357Z,190
2019-01-03T10:03:45.460Z,200
2019-01-03T10:04:53.460Z,195
2019-01-03T10:06:01.517Z,200
2019-01-03T10:07:09.580Z,205
2019-01-03T10:08:19.599Z,190
2019-01-03T10:09:25.688Z,175
2019-01-03T10:10:33.747Z,175
2019-01-03T10:11:41.830Z,180
2019-01-03T10:12:49.871Z,185
2019-01-03T10:13:57.918Z,190
2019-01-03T10:15:05.979Z,205
2019-01-03T10:16:14.031Z,205
2019-01-03T10:17:22.106Z,210
2019-01-03T10:18:30.144Z,210
2019-01-03T10:19:38.213Z,210
2019-01-03T10:20:46.266Z,205
2019-01-03T10:21:54.327Z,190
2019-01-03T10:23:02.366Z,190
2019-01-03T10:24:10.414Z,205
2019-01-03T10:25:18.472Z,215
2019-01-03T10:26:26.558Z,220
2019-01-03T10:27:34.608Z,225
2019-01-03T10:28:42.649Z,230
2019-01-03T10:29:50.686Z,220
2019-01-03T10:30:58.767Z,200
2019-01-03T10:32:06.823Z,205
2019-01-03T10:33:14.878Z,210
2019-01-03T10:34:22.937Z,210
2019-01-03T10:35:30.972Z,205
2019-01-03T10:36:39.048Z,215
2019-01-03T10:37:47.099Z,220
2019-01-03T10:38:55.155Z,220
2019-01-03T10:40:03.211Z,215
2019-01-03T10:41:11.280Z,225
2019-01-03T10:42:19.328Z,215
2019-01-03T10:43:27.394Z,205
2019-01-03T10:44:35.456Z,195
2019-01-03T10:45:43.515Z,195
2019-01-03T10:46:51.557Z,200
2019-01-03T10:47:59.615Z,205
2019-01-03T10:49:07.687Z,210
2019-01-03T10:50:15.796Z,205
2019-01-03T10:51:23.794Z,205
2019-01-03T10:52:31.841Z,200
2019-01-03T10:53:39.916Z,205
2019-01-03T10:54:47.970Z,215
2019-01-03T10:55:56.014Z,220
2019-01-03T10:57:04.080Z,230
2019-01-03T10:58:12.151Z,240
2019-01-03T10:59:20.191Z,240
2019-01-03T11:00:28.256Z,255
2019-01-03T11:01:36.323Z,260
2019-01-03T11:02:44.379Z,260
2019-01-03T11:03:52.426Z,250
2019-01-03T11:05:00.506Z,245
2019-01-03T11:06:08.527Z,240
2019-01-03T11:07:16.598Z,235
2019-01-03T11:08:24.657Z,235
2019-01-03T11:09:32.721Z,230
2019-01-03T11:10:40.749Z,225
2019-01-03T11:11:48.847Z,220
2019-01-03T11:12:56.919Z,210
2019-01-03T11:14:04.946Z,200
2019-01-03T11:15:12.998Z,195
2019-01-03T11:16:21.034Z,195
2019-01-03T11:17:29.205Z,190
2019-01-03T11:18:37.177Z,180
2019-01-03T11:19:45.250Z,175
2019-01-03T11:20:53.307Z,180
2019-01-03T11:22:01.327Z,175
2019-01-03T11:23:09.412Z,170
2019-01-03T11:24:17.465Z,165
2019-01-03T11:25:25.571Z,155
2019-01-03T11:26:33.579Z,150
2019-01-03T11:27:41.631Z,150
2019-01-03T11:28:49.687Z,150
2019-01-03T11:29:57.750Z,150
2019-01-03T11:31:05.800Z,155
2019-01-03T11:32:13.873Z,155
2019-01-03T11:33:21.917Z,155
2019-01-03T11:34:29.980Z,160
2019-01-03T11:35:38.046Z,165
2019-01-03T11:36:46.097Z,170
2019-01-03T11:37:54.143Z,175
2019-01-03T11:39:02.256Z,170
2019-01-03T11:40:10.266Z,170
2019-01-03T11:41:18.309Z,175
2019-01-03T11:42:26.380Z,170
2019-01-03T11:43:34.441Z,170
2019-01-03T11:44:42.492Z,175
2019-01-03T11:45:50.533Z,175
2019-01-03T11:46:58.612Z,165
2019-01-03T11:48:06.665Z,155
2019-01-03T11:49:14.721Z,155
2019-01-03T11:50:22.783Z,170
2019-01-03T11:51:30.811Z,180
2019-01-03T11:52:38.909Z,195
2019-01-03T11:53:46.945Z,200
2019-01-03T11:54:54.999Z,195
2019-01-03T11:56:03.074Z,195
2019-01-03T11:57:11.104Z,185
2019-01-03T11:58:19.186Z,185
2019-01-03T11:59:27.245Z,190
2019-01-03T12:00:35.310Z,205
2019-01-03T12:01:43.357Z,205
2019-01-03T12:02:51.400Z,215
2019-01-03T12:03:59.476Z,205
2019-01-03T12:05:07.532Z,205
2019-01-03T12:06:15.579Z,210
2019-01-03T12:07:23.640Z,220
2019-01-03T12:08:31.701Z,225
2019-01-03T12:09:39.752Z,245
2019-01-03T12:10:47.815Z,250
2019-01-03T12:11:55.875Z,240
2019-01-03T12:13:03.925Z,230
2019-01-03T12:14:11.993Z,230
2019-01-03T12:15:20.057Z,230
2019-01-03T12:16:28.105Z,220
2019-01-03T12:17:36.204Z,220
2019-01-03T12:18:44.226Z,220
2019-01-03T12:19:52.282Z,230
2019-01-03T12:21:00.315Z,230
2019-01-03T12:22:08.399Z,230
2019-01-03T12:23:16.443Z,225
2019-01-03T12:24:30.392Z,230
2019-01-03T12:25:32.566Z,225
2019-01-03T12:26:40.602Z,220
2019-01-03T12:27:48.686Z,230
2019-01-03T12:28:56.749Z,225
2019-01-03T12:30:04.800Z,220
2019-01-03T12:31:12.859Z,215
2019-01-03T12:32:20.920Z,215
2019-01-03T12:33:28.981Z,220
2019-01-03T12:34:37.020Z,225
2019-01-03T12:35:45.079Z,215
2019-01-03T12:36:53.143Z,205
2019-01-03T12:38:01.185Z,205
2019-01-03T12:39:09.260Z,200
2019-01-03T12:40:17.322Z,200
2019-01-03T12:41:25.372Z,200
2019-01-03T12:42:33.449Z,190
2019-01-03T12:43:41.480Z,190
2019-01-03T12:44:49.563Z,195
2019-01-03T12:45:57.613Z,200
2019-01-03T12:47:05.658Z,200
2019-01-03T12:48:13.708Z,190
2019-01-03T12:49:21.786Z,185
2019-01-03T12:50:30.961Z,180
2019-01-03T12:51:37.897Z,185
2019-01-03T12:52:45.955Z,195
2019-01-03T12:53:54.014Z,195
2019-01-03T12:55:02.079Z,185
2019-01-03T12:56:10.147Z,190
2019-01-03T12:57:18.184Z,185
2019-01-03T12:58:26.240Z,180
2019-01-03T12:59:34.293Z,175
2019-01-03T13:00:42.372Z,170
2019-01-03T13:01:50.415Z,170
2019-01-03T13:02:58.466Z,170
2019-01-03T13:04:06.541Z,175
2019-01-03T13:05:14.609Z,185
2019-01-03T13:06:23.005Z,185
2019-01-03T13:07:30.695Z,180
2019-01-03T13:08:38.814Z,175
2019-01-03T13:09:46.825Z,175
2019-01-03T13:10:54.877Z,165
2019-01-03T13:12:02.929Z,165
2019-01-03T13:13:10.960Z,160
2019-01-03T13:14:19.053Z,155
2019-01-03T13:15:27.114Z,155
2019-01-03T13:16:35.175Z,150
2019-01-03T13:17:43.228Z,150
2019-01-03T13:18:51.274Z,145
2019-01-03T13:19:59.333Z,145
2019-01-03T13:21:07.397Z,145
2019-01-03T13:22:15.461Z,150
2019-01-03T13:23:23.517Z,150
2019-01-03T13:24:31.576Z,155
2019-01-03T13:25:39.623Z,155
2019-01-03T13:26:47.688Z,160
2019-01-03T13:27:55.747Z,155
2019-01-03T13:29:03.804Z,150
2019-01-03T13:30:11.853Z,145
2019-01-03T13:31:19.906Z,140
2019-01-03T13:32:27.966Z,140
2019-01-03T13:33:36.011Z,125
2019-01-03T13:34:44.130Z,125
2019-01-03T13:35:52.146Z,115
2019-01-03T13:37:00.216Z,110
2019-01-03T13:38:08.259Z,140
2019-01-03T13:39:17.520Z,155
2019-01-03T13:40:24.384Z,155
2019-01-03T13:41:32.447Z,170
2019-01-03T13:42:40.482Z,160
2019-01-03T13:43:48.557Z,150
2019-01-03T13:44:56.618Z,155
2019-01-03T13:46:04.672Z,170
2019-01-03T13:47:12.729Z,155
2019-01-03T13:48:20.761Z,140
2019-01-03T13:49:28.935Z,140
2019-01-03T13:50:36.899Z,140
2019-01-03T13:51:44.955Z,135
2019-01-03T13:52:53.013Z,125
2019-01-03T13:54:01.043Z,135
2019-01-03T13:55:09.136Z,135
2019-01-03T13:56:17.179Z,125
2019-01-03T13:57:25.238Z,130
2019-01-03T13:58:33.315Z,120
2019-01-03T13:59:41.356Z,110
2019-01-03T14:00:49.406Z,105
2019-01-03T14:01:57.495Z,105
2019-01-03T14:03:05.522Z,100
2019-01-03T14:04:13.580Z,100
2019-01-03T14:05:21.614Z,95
2019-01-03T14:06:29.693Z,95
2019-01-03T14:07:37.741Z,95
2019-01-03T14:08:45.814Z,95
2019-01-03T14:09:53.862Z,100
2019-01-03T14:11:01.920Z,100
2019-01-03T14:12:09.987Z,95
2019-01-03T14:13:18.044Z,95
2019-01-03T14:14:26.098Z,90
2019-01-03T14:15:34.147Z,90
2019-01-03T14:16:42.210Z,85
2019-01-03T14:17:50.276Z,80
2019-01-03T14:18:58.311Z,80
2019-01-03T14:20:06.375Z,75
2019-01-03T14:21:14.423Z,75
2019-01-03T14:22:22.496Z,75
2019-01-03T14:23:30.527Z,80
2019-01-03T14:24:38.598Z,85
2019-01-03T14:25:46.650Z,90
2019-01-03T14:26:54.718Z,95
2019-01-03T14:28:02.772Z,90
2019-01-03T14:29:10.804Z,95
2019-01-03T14:30:18.883Z,95
2019-01-03T14:31:26.943Z,95
2019-01-03T14:32:35.004Z,90
2019-01-03T14:33:43.041Z,85
2019-01-03T14:34:51.087Z,85
2019-01-03T14:35:59.178Z,85
2019-01-03T14:37:07.214Z,85
2019-01-03T14:38:15.267Z,85
2019-01-03T14:39:23.319Z,80
2019-01-03T14:40:31.374Z,80
2019-01-03T14:41:39.441Z,75
2019-01-03T14:42:47.498Z,80
2019-01-03T14:43:55.559Z,75
2019-01-03T14:45:03.615Z,75
2019-01-03T14:46:11.659Z,70
2019-01-03T14:47:19.716Z,65
2019-01-03T14:48:27.785Z,65
2019-01-03T14:49:35.869Z,65
2019-01-03T14:50:43.909Z,60
2019-01-03T14:51:51.952Z,60
2019-01-03T14:53:00.006Z,60
2019-01-03T14:54:08.064Z,60
2019-01-03T14:55:16.164Z,60
2019-01-03T14:56:24.179Z,60
2019-01-03T14:57:32.246Z,55
2019-01-03T14:58:40.289Z,55
2019-01-03T14:59:48.343Z,55
2019-01-03T15:00:56.392Z,50
2019-01-03T15:02:04.457Z,50
2019-01-03T15:03:12.513Z,50
2019-01-03T15:04:20.561Z,45
2019-01-03T15:05:28.627Z,45
2019-01-03T15:06:36.678Z,45
2019-01-03T15:07:44.739Z,45
2019-01-03T15:08:52.791Z,40
2019-01-03T15:10:00.812Z,40
2019-01-03T15:11:08.905Z,40
2019-01-03T15:12:16.973Z,35
2019-01-03T15:13:25.011Z,35
2019-01-03T15:14:33.081Z,35
2019-01-03T15:15:41.165Z,30
2019-01-03T15:16:49.199Z,30
2019-01-03T15:17:57.239Z,30
2019-01-03T15:19:05.349Z,25
2019-01-03T15:20:13.358Z,25
2019-01-03T15:21:21.400Z,25
2019-01-03T15:22:29.474Z,20
2019-01-03T15:23:37.525Z,20
2019-01-03T15:24:45.572Z,20
2019-01-03T15:25:53.644Z,20
2019-01-03T15:27:01.695Z,15
2019-01-03T15:28:09.748Z,15
2019-01-03T15:29:17.797Z,15
2019-01-03T15:30:25.857Z,10
2019-01-03T15:31:33.908Z,10
2019-01-03T15:32:41.970Z,10
2019-01-03T15:33:50.022Z,10
2019-01-03T15:34:58.085Z,10
2019-01-03T15:36:06.133Z,10
2019-01-03T15:37:14.185Z,10
2019-01-03T15:38:22.243Z,10
2019-01-03T15:39:30.325Z,10
2019-01-03T15:40:38.367Z,10
2019-01-03T15:41:46.406Z,5
2019-01-03T15:42:54.474Z,5
2019-01-03T15:44:02.540Z,5
2019-01-03T15:45:10.565Z,5
2019-01-03T15:46:18.636Z,5
2019-01-03T15:47:26.732Z,5
2019-01-03T15:48:34.775Z,0
2019-01-03T15:49:42.807Z,0
2019-01-03T15:50:50.836Z,0
2019-01-03T15:51:58.916Z,0
2019-01-03T15:53:06.969Z,0
2019-01-03T15:54:15.018Z,0
2019-01-03T15:55:23.111Z,0
2019-01-03T15:56:31.106Z,0
2019-01-03T15:57:39.216Z,0
2019-01-03T15:58:47.261Z,0
2019-01-03T15:59:55.301Z,0
2019-01-03T16:01:03.364Z,0
2019-01-03T16:02:11.404Z,0
2019-01-03T16:03:19.477Z,0
2019-01-03T16:04:27.535Z,0
2019-01-03T16:05:35.590Z,0
2019-01-03T16:06:43.642Z,0
2019-01-03T16:07:51.724Z,0
2019-01-03T16:08:59.751Z,0
2019-01-03T16:10:07.794Z,0
2019-01-03T16:11:15.869Z,0
2019-01-03T16:12:23.919Z,0
2019-01-03T16:13:31.968Z,0
2019-01-03T16:14:40.029Z,0
2019-01-03T16:15:48.123Z,0
2019-01-03T16:16:56.144Z,0